Time;durP1;ratioP1;P1;durP2;ratioP2;P2;SDS_P1;SDS_P2;PMS_P1;PMS_P2;Temp;Humidity;BMP_temperature;BMP_pressure;BME280_temperature;BME280_humidity;BME280_pressure;Samples;Min_cycle;Max_cycle;Signal;HPM_P1;HPM_P2
2021/08/01 00:02:20;;;;;;;13.77;7.28;;;19.50;99.90;;;19.92;76.71;100804.75;5074316;28;20044;-72
2021/08/01 00:04:49;;;;;;;15.73;7.32;;;19.50;99.90;;;19.31;76.58;100704.50;5074186;28;20063;-73
2021/08/01 00:07:17;;;;;;;11.57;6.85;;;19.50;99.90;;;19.90;76.46;100812.84;5056136;28;20571;-73
2021/08/01 00:09:45;;;;;;;12.57;7.28;;;19.50;99.90;;;19.90;76.48;100815.53;5073303;28;20041;-73
2021/08/01 00:12:14;;;;;;;10.30;6.60;;;19.50;99.90;;;19.88;76.39;100820.09;5074179;28;20048;-73
2021/08/01 00:14:42;;;;;;;12.50;7.15;;;19.50;99.90;;;19.85;76.30;100809.50;5073997;28;20093;-73
2021/08/01 00:17:11;;;;;;;14.57;7.18;;;19.40;99.90;;;19.80;76.53;100806.16;5073887;28;20048;-73
2021/08/01 00:19:40;;;;;;;13.02;7.50;;;19.40;99.90;;;19.82;76.44;100806.97;5073844;28;20485;-73
2021/08/01 00:22:09;;;;;;;10.50;6.50;;;19.40;99.90;;;19.80;76.35;100804.31;5073864;28;20090;-73
2021/08/01 00:24:37;;;;;;;15.07;7.50;;;19.40;99.90;;;19.79;76.33;100799.91;5073495;28;20298;-73
2021/08/01 00:27:06;;;;;;;10.55;7.40;;;19.40;99.90;;;19.77;76.41;100803.59;5073196;28;20061;-73
2021/08/01 00:29:34;;;;;;;11.40;7.25;;;19.30;99.90;;;19.76;76.43;100799.19;5073754;28;20048;-73
2021/08/01 00:32:06;;;;;;;19.92;8.15;;;19.30;99.90;;;19.60;76.46;100776.59;5072363;28;20044;-73
2021/08/01 00:34:34;;;;;;;13.43;7.75;;;19.30;99.90;;;19.68;76.55;100795.94;5073769;28;20044;-73
2021/08/01 00:37:05;;;;;;;12.80;7.35;;;19.30;99.90;;;19.68;76.67;100796.81;5072388;28;20379;-73
2021/08/01 00:39:33;;;;;;;15.18;7.88;;;19.30;99.90;;;19.71;76.55;100799.38;5073775;28;20490;-73
2021/08/01 00:42:02;;;;;;;15.85;8.30;;;19.30;99.90;;;19.72;76.62;100794.88;5073526;28;20048;-73
2021/08/01 00:44:31;;;;;;;12.88;7.68;;;19.30;99.90;;;19.73;76.73;100796.59;5055529;28;20049;-73
2021/08/01 00:46:59;;;;;;;19.83;8.18;;;19.30;99.90;;;19.75;76.56;100802.78;5072218;28;20083;-73
2021/08/01 00:49:28;;;;;;;15.13;8.50;;;19.30;99.90;;;19.72;76.74;100794.88;5055408;28;20049;-73
2021/08/01 00:51:57;;;;;;;14.90;8.23;;;19.30;99.90;;;19.66;76.78;100789.78;5073224;28;20094;-73
2021/08/01 00:54:27;;;;;;;16.98;8.52;;;19.30;99.90;;;19.58;76.98;100787.41;5073417;28;20066;-73
2021/08/01 00:56:57;;;;;;;19.17;9.43;;;19.20;99.90;;;19.51;77.58;100788.59;5073139;28;20090;-73
2021/08/01 00:59:27;;;;;;;15.75;8.98;;;19.10;99.90;;;19.50;77.82;100791.34;5073039;28;20056;-73
2021/08/01 01:02:03;;;;;;;17.80;9.05;;;19.10;99.90;;;19.49;78.00;100781.56;5072966;28;20498;-73
2021/08/01 01:05:02;;;;;;;16.55;8.80;;;19.10;99.90;;;19.51;78.44;100788.59;5055349;28;20047;-73
2021/08/01 01:07:37;;;;;;;16.85;8.27;;;19.10;99.90;;;19.54;78.70;100785.78;5071857;28;20040;-73
2021/08/01 01:10:11;;;;;;;18.38;8.52;;;19.10;99.90;;;19.57;78.71;100777.59;5071798;28;20520;-72
2021/08/01 01:12:47;;;;;;;14.50;8.52;;;19.10;99.90;;;19.60;78.82;100780.16;5055162;28;20052;-73
2021/08/01 01:15:21;;;;;;;18.13;8.57;;;19.20;99.90;;;19.61;79.06;100776.53;5055036;28;20478;-72
2021/08/01 01:17:54;;;;;;;17.58;9.00;;;19.10;99.90;;;19.34;79.07;100729.41;5071560;28;20048;-81
2021/08/01 01:20:39;;;;;;;15.63;8.70;;;19.20;99.90;;;19.62;79.21;100778.31;5073163;28;20040;-80
2021/08/01 01:23:40;;;;;;;15.88;8.38;;;19.20;99.90;;;19.63;79.14;100779.16;5073313;28;20095;-80
2021/08/01 01:26:29;;;;;;;13.55;8.05;;;19.20;99.90;;;19.50;79.40;100743.03;5073267;28;20076;-80
2021/08/01 01:29:15;;;;;;;15.90;8.85;;;19.20;99.90;;;19.65;79.47;100769.22;5071992;28;20063;-80
2021/08/01 01:32:08;;;;;;;14.82;8.10;;;19.20;99.90;;;19.64;79.67;100768.38;5073135;28;20494;-80
2021/08/01 01:34:54;;;;;;;17.75;7.95;;;19.20;99.90;;;19.30;79.71;100705.47;5073229;28;20097;-81
2021/08/01 01:37:25;;;;;;;17.00;7.68;;;19.20;99.90;;;19.68;79.94;100763.75;5054959;28;20044;-81
2021/08/01 01:39:55;;;;;;;15.15;7.22;;;19.30;99.90;;;19.71;80.15;100763.59;5072008;28;20048;-81
2021/08/01 01:42:39;;;;;;;17.27;8.55;;;19.20;99.90;;;19.73;80.23;100762.59;5073169;28;20118;-81
2021/08/01 01:45:10;;;;;;;16.85;8.50;;;19.30;99.90;;;19.67;80.47;100757.50;5055090;28;20487;-81
2021/08/01 01:47:39;;;;;;;17.88;8.85;;;19.30;99.90;;;19.69;80.86;100771.72;5073107;28;20414;-80
2021/08/01 01:50:10;;;;;;;17.88;8.77;;;19.30;99.90;;;19.65;81.04;100753.13;5071714;28;20044;-82
2021/08/01 01:52:42;;;;;;;19.60;9.07;;;19.30;99.90;;;19.76;81.27;100765.13;5071709;28;20131;-80
2021/08/01 01:55:12;;;;;;;23.23;10.93;;;19.30;99.90;;;19.77;81.42;100761.53;5071749;28;20078;-81
2021/08/01 01:57:45;;;;;;;19.73;9.98;;;19.30;99.90;;;19.74;81.53;100758.94;5055071;28;20143;-81
2021/08/01 02:00:16;;;;;;;24.88;11.38;;;19.30;99.90;;;19.76;81.54;100758.91;5071696;28;20058;-82
2021/08/01 02:02:45;;;;;;;20.98;11.73;;;19.30;99.90;;;19.61;81.73;100752.38;5073402;28;20056;-81
2021/08/01 02:05:24;;;;;;;20.52;11.35;;;19.20;99.90;;;19.48;81.60;100729.72;5055113;28;20049;-82
2021/08/01 02:08:12;;;;;;;22.13;11.20;;;19.20;99.90;;;19.59;81.61;100756.94;5072922;28;20056;-81
2021/08/01 02:11:24;;;;;;;21.65;11.77;;;19.20;99.90;;;19.44;81.73;100759.41;5072226;28;20123;-82
2021/08/01 02:14:09;;;;;;;20.48;12.02;;;19.10;99.90;;;19.46;81.58;100744.13;5073207;28;20045;-80
2021/08/01 02:16:40;;;;;;;24.45;13.20;;;19.00;99.90;;;19.31;81.79;100747.41;5072867;28;20044;-81
2021/08/01 02:19:11;;;;;;;23.75;12.57;;;18.90;99.90;;;19.28;81.95;100753.78;5071581;28;20045;-81
2021/08/01 02:21:45;;;;;;;19.75;12.18;;;18.80;99.90;;;19.26;81.93;100757.47;5071462;28;20374;-80
2021/08/01 02:24:18;;;;;;;22.48;12.52;;;18.80;99.90;;;19.24;81.99;100762.88;5071352;28;20477;-80
2021/08/01 02:26:48;;;;;;;21.90;12.88;;;18.80;99.90;;;19.24;81.73;100757.53;5072570;28;20417;-78
2021/08/01 02:29:17;;;;;;;21.65;12.82;;;18.80;99.90;;;19.22;81.73;100763.91;5054458;28;20049;-79
2021/08/01 02:31:46;;;;;;;23.08;11.80;;;18.80;99.90;;;19.16;81.64;100759.69;5072622;28;20080;-81
2021/08/01 02:34:15;;;;;;;16.50;11.75;;;18.70;99.90;;;19.17;81.54;100760.53;5075653;28;20121;-80
2021/08/01 02:36:45;;;;;;;24.35;12.88;;;18.70;99.90;;;19.18;81.39;100754.25;5074917;28;20444;-80
2021/08/01 02:39:17;;;;;;;21.08;12.30;;;18.70;99.90;;;19.18;81.27;100756.94;5058311;28;20139;-81
2021/08/01 02:41:47;;;;;;;19.23;12.55;;;18.80;99.90;;;19.15;81.06;100757.03;5075844;28;20072;-81
2021/08/01 02:44:28;;;;;;;19.80;11.40;;;18.80;99.90;;;19.13;80.96;100753.53;5058207;28;20041;-80
2021/08/01 02:46:58;;;;;;;27.05;12.35;;;18.70;99.90;;;19.12;81.07;100757.19;5076020;28;20528;-82
2021/08/01 02:49:38;;;;;;;19.10;13.30;;;18.70;99.90;;;19.06;81.09;100757.41;5074762;28;20090;-81
2021/08/01 02:52:10;;;;;;;25.60;13.30;;;18.60;99.90;;;19.07;81.18;100759.16;5075955;28;20040;-81
2021/08/01 02:54:42;;;;;;;24.20;13.48;;;18.70;99.90;;;19.03;81.23;100747.69;5075870;28;20090;-80
2021/08/01 02:57:14;;;;;;;25.45;13.60;;;18.70;99.90;;;19.03;81.31;100758.41;5057913;28;20059;-81
2021/08/01 02:59:44;;;;;;;23.90;12.80;;;18.60;99.90;;;19.00;81.44;100744.25;5057941;28;20048;-81
2021/08/01 03:02:13;;;;;;;23.33;13.47;;;18.60;99.90;;;19.04;81.38;100754.81;5074214;28;20048;-81
2021/08/01 03:05:04;;;;;;;24.25;13.35;;;18.60;99.90;;;19.03;81.53;100747.69;5057761;28;20784;-81
2021/08/01 03:07:33;;;;;;;25.38;13.50;;;18.60;99.90;;;19.01;81.75;100743.34;5057818;28;20055;-81
2021/08/01 03:10:03;;;;;;;24.67;13.80;;;18.60;99.90;;;18.99;81.63;100740.69;5074356;28;20058;-81
2021/08/01 03:12:33;;;;;;;26.70;14.52;;;18.60;99.90;;;19.03;81.73;100736.09;5057601;28;20552;-81
2021/08/01 03:15:02;;;;;;;25.80;14.50;;;18.60;99.90;;;19.02;81.81;100737.91;5074287;28;20436;-81
2021/08/01 03:17:35;;;;;;;27.67;15.95;;;18.60;99.90;;;19.02;81.76;100740.59;5075568;28;20051;-81
2021/08/01 03:20:05;;;;;;;26.52;15.40;;;18.60;99.90;;;19.04;81.63;100735.16;5074157;28;20041;-81
2021/08/01 03:22:40;;;;;;;26.98;14.50;;;18.60;99.90;;;19.00;81.96;100739.78;5057525;28;20098;-82
2021/08/01 03:25:11;;;;;;;24.50;14.98;;;18.60;99.90;;;18.95;82.15;100727.50;5057270;28;20056;-82
2021/08/01 03:27:40;;;;;;;28.30;15.45;;;18.50;99.90;;;18.93;82.10;100738.25;5057175;28;20230;-82
2021/08/01 03:30:11;;;;;;;25.63;15.48;;;18.50;99.90;;;18.77;82.16;100719.28;5057281;28;20056;-82
2021/08/01 03:32:40;;;;;;;25.52;15.52;;;18.50;99.90;;;18.94;82.00;100742.72;5057231;28;20048;-82
2021/08/01 03:35:10;;;;;;;28.80;15.35;;;18.50;99.90;;;18.91;82.19;100759.78;5075370;28;20067;-82
2021/08/01 03:37:58;;;;;;;24.35;15.55;;;18.50;99.90;;;18.94;82.03;100742.72;5074629;28;20060;-82
2021/08/01 03:40:57;;;;;;;23.90;14.52;;;18.50;99.90;;;18.92;82.23;100742.78;5002697;28;20141;-81
2021/08/01 03:43:26;;;;;;;30.80;15.50;;;18.50;99.90;;;18.90;82.14;100741.09;5057066;28;20052;-82
2021/08/01 03:45:54;;;;;;;28.85;15.85;;;18.50;99.90;;;18.94;82.05;100745.38;5056964;28;20398;-81
2021/08/01 03:48:23;;;;;;;25.20;16.02;;;18.50;99.90;;;18.91;82.06;100749.06;5056941;28;20498;-81
2021/08/01 03:50:53;;;;;;;25.15;15.13;;;18.50;99.90;;;18.93;82.07;100755.22;5073509;28;20490;-82
2021/08/01 03:53:21;;;;;;;25.25;14.68;;;18.50;99.90;;;18.79;81.91;100728.09;5074408;28;20481;-79
2021/08/01 03:55:50;;;;;;;27.52;16.15;;;18.50;99.90;;;18.91;82.17;100749.06;5074393;28;20052;-83
2021/08/01 03:58:19;;;;;;;26.73;15.50;;;18.50;99.90;;;18.87;82.19;100744.75;5074690;28;20051;-80
2021/08/01 04:00:48;;;;;;;25.17;15.90;;;18.40;99.90;;;18.89;82.23;100750.06;5074662;28;20094;-79
2021/08/01 04:03:17;;;;;;;33.22;16.50;;;18.50;99.90;;;18.92;82.15;100752.63;5074200;28;20561;-81
2021/08/01 04:05:46;;;;;;;29.40;15.70;;;18.50;99.90;;;18.81;82.18;100728.06;5074594;28;20056;-82
2021/08/01 04:08:14;;;;;;;31.00;17.02;;;18.50;99.90;;;18.93;82.33;100752.56;5074501;28;20090;-83
2021/08/01 04:10:43;;;;;;;26.48;16.13;;;18.50;99.90;;;18.96;82.06;100756.94;5074418;28;20090;-83
2021/08/01 04:13:11;;;;;;;29.48;16.60;;;18.50;99.90;;;18.90;82.39;100762.53;5074195;28;20111;-82
2021/08/01 04:15:46;;;;;;;27.27;15.93;;;18.50;99.90;;;18.92;82.42;100750.81;5074302;28;20044;-81
2021/08/01 04:18:15;;;;;;;30.77;17.58;;;18.50;99.90;;;18.96;82.53;100754.25;5074301;28;20087;-82
2021/08/01 04:20:43;;;;;;;26.02;16.25;;;18.50;99.90;;;18.97;82.48;100757.81;5074161;28;20429;-83
2021/08/01 04:23:11;;;;;;;29.67;16.23;;;18.60;99.90;;;18.98;82.55;100759.53;5074107;28;20053;-81
2021/08/01 04:25:40;;;;;;;26.85;16.52;;;18.60;99.90;;;18.97;82.82;100760.50;5055687;28;20086;-81
2021/08/01 04:28:08;;;;;;;27.38;16.60;;;18.50;99.90;;;18.94;83.04;100758.78;5074064;28;20459;-81
2021/08/01 04:30:36;;;;;;;27.70;17.33;;;18.50;99.90;;;18.95;83.03;100762.34;5073988;28;20048;-82
2021/08/01 04:33:06;;;;;;;34.08;18.13;;;18.50;99.90;;;18.92;83.62;100768.69;5073873;28;20044;-81
2021/08/01 04:35:34;;;;;;;30.00;18.70;;;18.50;99.90;;;18.73;83.54;100723.00;5073987;28;20041;-83
2021/08/01 04:38:03;;;;;;;33.05;18.00;;;18.60;99.90;;;18.78;84.13;100728.16;5073937;28;20048;-81
2021/08/01 04:40:31;;;;;;;28.60;18.52;;;18.60;99.90;;;18.92;84.50;100760.66;5073869;28;20102;-82
2021/08/01 04:42:59;;;;;;;35.83;18.50;;;18.50;99.90;;;18.89;84.90;100764.31;5073813;28;20101;-82
2021/08/01 04:45:28;;;;;;;30.05;20.10;;;18.50;99.90;;;18.91;85.27;100753.56;5072485;28;20040;-81
2021/08/01 04:47:56;;;;;;;34.25;20.08;;;18.50;99.90;;;18.88;85.26;100742.94;5073758;28;20037;-82
2021/08/01 04:50:26;;;;;;;32.40;20.08;;;18.60;99.90;;;18.97;85.73;100758.66;5073386;28;20375;-82
2021/08/01 04:52:54;;;;;;;32.33;19.20;;;18.60;99.90;;;19.02;85.57;100751.31;5073640;28;20048;-82
2021/08/01 04:55:23;;;;;;;29.95;19.85;;;18.60;99.90;;;19.03;85.71;100745.00;5073004;28;20302;-81
2021/08/01 04:57:52;;;;;;;26.45;19.40;;;18.60;99.90;;;19.04;85.85;100746.75;5073381;28;20485;-81
2021/08/01 05:00:20;;;;;;;29.63;18.33;;;18.60;99.90;;;18.99;85.77;100747.91;5073562;28;20044;-82
2021/08/01 05:02:48;;;;;;;31.67;19.42;;;18.60;99.90;;;18.95;86.36;100749.81;5073513;28;20555;-82
2021/08/01 05:05:17;;;;;;;28.67;20.40;;;18.60;99.90;;;18.99;86.52;100746.06;5073428;28;20054;-81
2021/08/01 05:07:47;;;;;;;28.05;19.33;;;18.60;99.90;;;19.03;86.49;100747.69;5073466;28;20040;-82
2021/08/01 05:10:15;;;;;;;29.43;19.60;;;18.60;99.90;;;19.05;86.43;100750.31;5072173;28;20444;-82
2021/08/01 05:12:44;;;;;;;29.75;18.75;;;18.70;99.90;;;19.17;86.11;100749.78;5073410;28;20102;-81
2021/08/01 05:15:14;;;;;;;28.27;19.08;;;18.70;99.90;;;19.21;85.99;100746.06;5073314;28;20177;-80
2021/08/01 05:17:42;;;;;;;27.80;19.38;;;18.80;99.90;;;19.27;85.89;100753.84;5073324;28;20486;-84
2021/08/01 05:20:12;;;;;;;24.00;18.17;;;18.90;99.90;;;19.24;86.01;100745.94;5073313;28;20106;-85
2021/08/01 05:22:40;;;;;;;28.95;19.45;;;18.80;99.90;;;19.24;86.43;100748.63;5072972;28;20551;-85
2021/08/01 05:25:11;;;;;;;26.90;18.88;;;18.90;99.90;;;19.30;86.32;100751.06;5073031;28;20127;-84
2021/08/01 05:27:39;;;;;;;32.67;20.30;;;18.90;99.90;;;19.26;86.15;100744.91;5072775;28;20058;-83
2021/08/01 05:30:09;;;;;;;32.85;20.55;;;18.90;99.90;;;19.02;86.32;100700.38;5073238;28;20072;-82
2021/08/01 05:32:38;;;;;;;31.85;21.15;;;18.90;99.90;;;19.24;86.48;100745.94;5073265;28;20048;-83
2021/08/01 05:35:09;;;;;;;34.67;22.17;;;18.90;99.90;;;19.20;86.56;100742.50;5073077;28;20040;-83
2021/08/01 05:37:37;;;;;;;30.50;21.30;;;18.80;99.90;;;19.17;86.70;100745.31;5055196;28;20048;-82
2021/08/01 05:40:08;;;;;;;33.85;23.83;;;18.80;99.90;;;19.16;86.90;100746.28;5073083;28;20124;-82
2021/08/01 05:42:39;;;;;;;37.05;23.55;;;18.70;99.90;;;19.15;86.83;100746.31;5072891;28;20041;-81
2021/08/01 05:45:09;;;;;;;33.67;23.50;;;18.70;99.90;;;19.19;86.91;100753.28;5073194;28;20045;-82
2021/08/01 05:47:38;;;;;;;37.95;24.60;;;18.70;99.90;;;19.15;86.88;100744.50;5073322;28;20091;-81
2021/08/01 05:50:09;;;;;;;38.33;25.20;;;18.70;99.90;;;19.17;87.20;100758.72;5073089;28;20055;-81
2021/08/01 05:52:37;;;;;;;39.42;24.08;;;18.80;99.90;;;19.17;87.11;100755.16;5073074;28;20048;-81
2021/08/01 05:55:07;;;;;;;41.30;26.05;;;18.80;99.90;;;19.25;86.93;100763.75;5072901;28;20060;-81
2021/08/01 05:57:36;;;;;;;38.60;25.10;;;18.80;99.90;;;19.26;87.05;100762.84;5073066;28;20037;-81
2021/08/01 06:00:07;;;;;;;37.72;26.10;;;18.80;99.90;;;19.17;87.50;100757.84;5073021;28;20075;-82
2021/08/01 06:02:36;;;;;;;36.50;26.08;;;18.80;99.90;;;19.27;87.99;100749.38;5072950;28;20049;-82
2021/08/01 06:05:06;;;;;;;41.25;25.85;;;18.90;99.90;;;19.16;88.19;100738.22;5072908;28;20048;-83
2021/08/01 06:07:34;;;;;;;36.45;26.17;;;18.80;99.90;;;19.29;88.41;100746.63;5055409;28;20060;-81
2021/08/01 06:10:03;;;;;;;41.38;27.00;;;18.90;99.90;;;19.24;88.69;100754.00;5076682;28;20440;-81
2021/08/01 06:12:31;;;;;;;36.25;28.10;;;18.90;99.90;;;19.41;88.92;100756.88;5076588;28;20052;-82
2021/08/01 06:15:00;;;;;;;26.05;19.90;;;19.00;99.90;;;19.32;88.92;100750.06;5076563;28;20048;-82
2021/08/01 06:17:30;;;;;;;27.13;20.13;;;19.00;99.90;;;19.30;88.70;100753.75;5076649;28;20562;-82
2021/08/01 06:19:58;;;;;;;21.90;17.77;;;18.90;99.90;;;19.35;88.40;100752.63;5076643;28;20044;-82
2021/08/01 06:22:26;;;;;;;21.30;16.13;;;19.00;99.90;;;19.30;88.17;100748.38;5076467;28;20291;-82
2021/08/01 06:24:55;;;;;;;19.83;16.13;;;18.90;99.90;;;19.27;88.09;100740.44;5076412;28;20048;-82
2021/08/01 06:27:23;;;;;;;19.70;15.98;;;18.90;99.90;;;19.23;88.14;100736.13;5076441;28;20080;-82
2021/08/01 06:29:52;;;;;;;21.33;16.35;;;18.90;99.90;;;19.34;88.42;100744.63;5076142;28;20071;-83
2021/08/01 06:32:20;;;;;;;19.00;15.65;;;18.90;99.90;;;19.33;88.55;100746.47;5075976;28;20560;-86
2021/08/01 06:34:50;;;;;;;21.15;15.35;;;18.90;99.90;;;19.37;88.54;100753.44;5076256;28;20044;-82
2021/08/01 06:37:18;;;;;;;20.38;15.90;;;19.00;99.90;;;19.23;88.15;100728.09;5076216;28;20036;-82
2021/08/01 06:39:46;;;;;;;19.48;15.48;;;19.00;99.90;;;19.31;88.49;100752.78;5076460;28;20075;-86
2021/08/01 06:42:15;;;;;;;18.55;15.80;;;18.90;99.90;;;19.39;88.38;100756.94;5076103;28;20076;-83
2021/08/01 06:44:43;;;;;;;21.98;16.70;;;19.00;99.90;;;19.43;88.22;100755.88;5076138;28;20075;-84
2021/08/01 06:47:12;;;;;;;22.15;15.43;;;19.00;99.90;;;19.39;87.99;100762.31;5075980;28;20048;-85
2021/08/01 06:49:41;;;;;;;18.50;15.90;;;19.00;99.90;;;19.36;88.21;100762.41;5075948;28;20071;-83
2021/08/01 06:52:24;;;;;;;19.33;13.68;;;18.90;99.90;;;19.26;88.24;100765.53;5075963;28;20048;-84
2021/08/01 06:54:53;;;;;;;19.40;13.13;;;18.90;99.90;;;19.28;88.02;100761.81;5075823;28;20114;-85
2021/08/01 06:57:22;;;;;;;16.67;11.88;;;18.90;99.90;;;19.14;88.36;100757.97;5075922;28;20090;-84
2021/08/01 06:59:50;;;;;;;16.15;11.50;;;18.80;99.90;;;19.09;88.63;100762.66;5075878;28;20045;-87
2021/08/01 07:02:19;;;;;;;14.85;11.55;;;18.70;99.90;;;19.15;88.36;100782.03;5075847;28;20106;-85
2021/08/01 07:04:47;;;;;;;16.23;10.73;;;18.70;99.90;;;19.14;88.31;100783.00;5075723;28;20076;-86
2021/08/01 07:07:16;;;;;;;17.67;11.18;;;18.70;99.90;;;19.26;88.08;100784.31;5075778;28;20049;-85
2021/08/01 07:09:46;;;;;;;16.00;10.60;;;18.90;99.90;;;19.35;87.84;100783.94;5075634;28;20045;-85
2021/08/01 07:12:15;;;;;;;13.97;10.57;;;19.00;99.90;;;19.30;87.39;100773.38;5077621;28;20552;-86
2021/08/01 07:14:43;;;;;;;18.17;12.23;;;19.00;99.90;;;19.47;87.08;100781.59;5075210;28;20043;-84
2021/08/01 07:17:11;;;;;;;12.43;10.50;;;19.10;99.90;;;19.49;86.55;100781.56;5075321;28;20139;-80
2021/08/01 07:19:41;;;;;;;14.07;10.18;;;19.20;99.90;;;19.51;85.92;100771.66;5075430;28;20101;-85
2021/08/01 07:22:09;;;;;;;12.30;9.10;;;19.20;99.90;;;19.41;85.31;100781.00;5075483;28;20094;-83
2021/08/01 07:24:37;;;;;;;13.18;9.13;;;19.00;99.90;;;19.21;85.91;100783.59;5075368;28;20094;-84
2021/08/01 07:27:07;;;;;;;13.10;10.27;;;18.80;99.90;;;19.21;85.84;100775.56;5075245;28;20078;-83
2021/08/01 07:29:36;;;;;;;16.10;11.70;;;18.90;99.90;;;19.35;86.21;100810.78;5075283;28;20402;-82
2021/08/01 07:32:05;;;;;;;16.77;11.02;;;19.00;99.90;;;19.41;86.51;100795.31;5075252;28;20052;-87
2021/08/01 07:34:33;;;;;;;15.13;11.60;;;19.10;99.90;;;19.40;86.37;100790.84;5075055;28;20045;-84
2021/08/01 07:37:02;;;;;;;18.50;11.77;;;19.10;99.90;;;19.41;86.39;100795.31;5075196;28;20048;-85
2021/08/01 07:39:30;;;;;;;17.45;12.00;;;19.10;99.90;;;19.34;87.04;100806.31;5057192;28;20052;-88
2021/08/01 07:41:59;;;;;;;13.02;10.50;;;19.00;99.90;;;19.47;86.96;100794.19;5075125;28;20053;-87
2021/08/01 07:44:30;;;;;;;13.50;11.20;;;19.10;99.90;;;19.53;86.83;100797.44;5075138;28;20036;-82
2021/08/01 07:46:58;;;;;;;12.20;9.80;;;19.10;99.90;;;19.44;86.60;100779.06;5074970;28;20048;-83
2021/08/01 07:49:27;;;;;;;13.05;9.88;;;19.20;99.90;;;19.62;86.37;100798.88;5074968;28;20044;-81
2021/08/01 07:51:55;;;;;;;13.63;9.85;;;19.30;99.90;;;19.73;85.88;100797.50;5074626;28;20048;-79
2021/08/01 07:54:24;;;;;;;10.45;9.00;;;19.40;99.90;;;19.70;85.60;100792.22;5074585;28;20071;-78
2021/08/01 07:56:52;;;;;;;12.32;8.75;;;19.40;99.90;;;19.74;85.39;100796.53;5074567;28;20044;-81
2021/08/01 07:59:20;;;;;;;10.15;7.72;;;19.30;99.90;;;19.78;85.26;100799.97;5056653;28;20147;-81
2021/08/01 08:01:50;;;;;;;8.88;7.75;;;19.40;99.90;;;19.82;85.04;100796.22;5074608;28;20105;-77
2021/08/01 08:04:19;;;;;;;11.80;7.57;;;19.40;99.90;;;19.87;84.93;100799.56;5074465;28;20053;-77
2021/08/01 08:06:47;;;;;;;9.60;7.28;;;19.50;99.90;;;19.91;84.92;100797.63;5073317;28;20149;-78
2021/08/01 08:09:16;;;;;;;8.38;6.90;;;19.50;99.90;;;19.98;84.94;100804.47;5074429;28;20044;-80
2021/08/01 08:11:44;;;;;;;8.40;7.38;;;19.60;99.90;;;20.08;84.70;100817.44;5074425;28;20048;-81
2021/08/01 08:14:13;;;;;;;10.45;7.00;;;19.70;99.90;;;20.07;84.77;100815.69;5074292;28;20052;-85
2021/08/01 08:16:42;;;;;;;6.63;5.85;;;19.70;99.90;;;20.11;84.64;100814.59;5074407;28;20052;-85
2021/08/01 08:19:12;;;;;;;7.30;6.53;;;19.80;99.90;;;20.15;84.40;100802.78;5074394;28;20385;-88
2021/08/01 08:21:40;;;;;;;6.57;5.88;;;19.90;99.90;;;20.33;84.13;100827.97;5074198;28;20044;-79
2021/08/01 08:24:13;;;;;;;7.07;5.72;;;20.00;99.90;;;20.33;83.55;100822.59;5074513;28;20106;-87
2021/08/01 08:26:41;;;;;;;7.75;5.82;;;20.00;99.90;;;20.15;82.61;100800.09;5074033;28;20226;-87
2021/08/01 08:29:09;;;;;;;9.40;5.25;;;20.00;99.90;;;20.39;82.34;100830.38;5074141;28;20040;-87
2021/08/01 08:31:38;;;;;;;5.70;5.07;;;20.00;99.90;;;20.42;81.78;100824.91;5073383;28;20405;-77
2021/08/01 08:34:06;;;;;;;6.68;5.85;;;20.10;99.90;;;20.62;81.87;100830.22;5073929;28;20053;-79
2021/08/01 08:36:36;;;;;;;8.65;6.53;;;20.20;99.90;;;20.75;80.69;100827.84;5073783;28;20044;-82
2021/08/01 08:39:04;;;;;;;8.37;6.00;;;20.40;99.90;;;20.90;80.90;100837.88;5073841;28;20091;-80
2021/08/01 08:41:34;;;;;;;7.55;6.15;;;20.60;99.90;;;20.93;81.46;100808.13;5073571;28;20044;-80
2021/08/01 08:44:03;;;;;;;8.40;5.97;;;20.80;99.90;;;21.28;80.60;100842.31;5073784;28;20057;-78
2021/08/01 08:46:36;;;;;;;6.57;5.90;;;21.00;99.90;;;21.38;79.23;100846.31;5072447;28;20291;-78
2021/08/01 08:49:09;;;;;;;8.90;6.25;;;21.10;99.90;;;20.93;78.09;100765.97;5073770;28;20436;-82
2021/08/01 08:51:40;;;;;;;8.30;6.82;;;21.10;99.90;;;21.52;77.37;100841.97;5073379;28;20541;-79
2021/08/01 08:54:14;;;;;;;9.55;6.50;;;21.20;99.90;;;21.54;76.95;100845.44;5073658;28;20101;-78
2021/08/01 08:56:44;;;;;;;8.15;7.18;;;21.30;99.90;;;21.55;76.48;100846.34;5055601;28;20055;-77
2021/08/01 08:59:14;;;;;;;;;;;21.30;99.90;;;21.64;76.72;100839.63;5073578;28;20494;-78
2021/08/01 09:01:43;;;;;;;11.40;7.30;;;21.30;99.90;;;21.48;77.87;100840.41;5073172;28;20325;-82
2021/08/01 09:04:11;;;;;;;10.65;8.15;;;21.20;99.90;;;21.51;78.52;100844.75;5073233;28;20049;-77
2021/08/01 09:06:42;;;;;;;9.57;8.60;;;21.20;99.90;;;21.30;78.28;100840.41;5055131;28;20048;-72
2021/08/01 09:09:13;;;;;;;10.00;9.00;;;21.10;99.90;;;21.27;77.24;100851.34;5073243;28;20123;-77
2021/08/01 09:11:42;;;;;;;11.50;9.57;;;21.00;99.90;;;21.13;77.36;100846.63;5073081;28;20045;-78
2021/08/01 09:14:20;;;;;;;10.00;8.98;;;20.90;99.90;;;21.01;77.83;100843.63;5071807;28;20051;-78
2021/08/01 09:16:51;;;;;;;9.30;8.23;;;20.70;99.90;;;20.86;76.96;100836.25;5073044;28;20118;-77
2021/08/01 09:19:32;;;;;;;11.63;7.65;;;20.60;99.90;;;20.85;76.79;100843.44;5073013;28;20052;-79
2021/08/01 09:22:20;;;;;;;8.70;7.60;;;20.60;99.90;;;20.73;77.55;100844.03;5073036;28;20075;-76
2021/08/01 09:24:54;;;;;;;9.18;8.27;;;20.50;99.90;;;20.77;77.16;100864.44;5071444;28;20391;-74
2021/08/01 09:27:28;;;;;;;8.45;7.45;;;20.50;99.90;;;20.78;77.54;100849.19;5054677;28;20122;-73
2021/08/01 09:29:58;;;;;;;10.20;9.15;;;20.50;99.90;;;20.49;78.10;100810.22;5072979;28;20048;-73
2021/08/01 09:32:30;;;;;;;10.02;8.73;;;20.50;99.90;;;20.97;78.56;100850.06;5071655;28;20049;-74
2021/08/01 09:34:59;;;;;;;8.60;7.47;;;20.60;99.90;;;20.76;76.43;100857.34;5072981;28;20040;-72
2021/08/01 09:37:34;;;;;;;8.32;7.53;;;20.60;99.90;;;20.31;76.81;100825.38;5072799;28;20094;-72
2021/08/01 09:40:13;;;;;;;10.10;9.02;;;20.30;99.90;;;20.57;77.62;100859.13;5072995;28;20119;-77
2021/08/01 09:42:44;;;;;;;10.13;8.25;;;20.20;99.90;;;20.61;77.40;100860.75;5075420;28;20059;-71
2021/08/01 09:45:16;;;;;;;10.45;9.30;;;20.30;99.90;;;20.77;77.64;100855.53;5076793;28;20567;-72
2021/08/01 09:47:45;;;;;;;8.40;7.65;;;20.40;99.90;;;20.80;76.89;100868.81;5076757;28;20551;-70
2021/08/01 09:50:15;;;;;;;8.98;7.97;;;20.50;99.90;;;20.84;76.12;100859.66;5076942;28;20098;-70
2021/08/01 09:52:45;;;;;;;7.57;6.88;;;20.50;99.90;;;20.64;75.19;100863.28;5076889;28;20052;-71
2021/08/01 09:55:21;;;;;;;10.30;7.05;;;20.40;99.90;;;20.49;75.85;100872.91;5076873;28;20055;-70
2021/08/01 09:57:54;;;;;;;8.57;6.50;;;20.30;99.90;;;20.54;75.74;100873.56;5076667;28;20455;-70
2021/08/01 10:00:23;;;;;;;8.43;6.60;;;20.20;99.90;;;20.65;74.32;100870.41;5076791;28;20041;-76
2021/08/01 10:02:54;;;;;;;6.47;5.88;;;20.30;99.90;;;20.73;74.25;100852.09;5076728;28;20040;-73
2021/08/01 10:05:25;;;;;;;6.53;5.93;;;20.50;99.90;;;20.97;74.29;100866.22;5076983;28;20432;-73
2021/08/01 10:07:55;;;;;;;7.55;5.93;;;20.70;99.90;;;20.92;72.71;100866.44;5076582;28;20451;-71
2021/08/01 10:10:26;;;;;;;9.50;7.30;;;20.60;99.90;;;21.00;73.72;100879.53;5076259;28;20052;-70
2021/08/01 10:12:57;;;;;;;6.70;6.00;;;20.70;99.90;;;20.88;72.92;100878.28;5076160;28;20530;-71
2021/08/01 10:15:27;;;;;;;8.07;6.60;;;20.60;99.90;;;20.65;73.43;100860.50;5076452;28;20048;-69
2021/08/01 10:17:56;;;;;;;12.10;8.13;;;20.50;99.90;;;20.62;73.97;100874.09;5076239;28;20045;-72
2021/08/01 10:20:27;;;;;;;8.43;6.35;;;20.40;99.90;;;20.67;74.17;100869.38;5076293;28;20033;-74